sensor_id;sensor_type;location;lat;lon;timestamp;P1;durP1;ratioP1;P2;durP2;ratioP2
74933;SDS011;63499;53.232;7.492;2023-05-07T00:01:37;23.13;;;15.13;;
74933;SDS011;63499;53.232;7.492;2023-05-07T00:04:04;18.45;;;14.70;;
74933;SDS011;63499;53.232;7.492;2023-05-07T00:06:35;21.25;;;14.00;;
74933;SDS011;63499;53.232;7.492;2023-05-07T00:09:02;22.50;;;13.82;;
74933;SDS011;63499;53.232;7.492;2023-05-07T00:11:30;21.58;;;14.95;;
74933;SDS011;63499;53.232;7.492;2023-05-07T00:13:56;20.77;;;14.10;;
74933;SDS011;63499;53.232;7.492;2023-05-07T00:16:26;20.17;;;14.77;;
74933;SDS011;63499;53.232;7.492;2023-05-07T00:18:53;23.77;;;14.57;;
74933;SDS011;63499;53.232;7.492;2023-05-07T00:21:20;22.88;;;15.23;;
74933;SDS011;63499;53.232;7.492;2023-05-07T00:23:47;22.17;;;14.48;;
74933;SDS011;63499;53.232;7.492;2023-05-07T00:28:49;23.05;;;14.85;;
74933;SDS011;63499;53.232;7.492;2023-05-07T00:31:16;24.58;;;16.00;;
74933;SDS011;63499;53.232;7.492;2023-05-07T00:33:43;24.30;;;14.98;;
74933;SDS011;63499;53.232;7.492;2023-05-07T00:36:10;25.92;;;16.00;;
74933;SDS011;63499;53.232;7.492;2023-05-07T00:38:38;23.80;;;15.65;;
74933;SDS011;63499;53.232;7.492;2023-05-07T00:41:05;25.25;;;16.42;;
74933;SDS011;63499;53.232;7.492;2023-05-07T00:43:32;33.25;;;16.77;;
74933;SDS011;63499;53.232;7.492;2023-05-07T00:45:58;29.05;;;16.85;;
74933;SDS011;63499;53.232;7.492;2023-05-07T00:48:26;28.48;;;17.30;;
74933;SDS011;63499;53.232;7.492;2023-05-07T00:50:53;26.23;;;15.73;;
74933;SDS011;63499;53.232;7.492;2023-05-07T00:53:21;19.80;;;14.63;;
74933;SDS011;63499;53.232;7.492;2023-05-07T00:55:51;23.17;;;15.80;;
74933;SDS011;63499;53.232;7.492;2023-05-07T00:58:19;23.15;;;15.60;;
74933;SDS011;63499;53.232;7.492;2023-05-07T01:00:46;23.15;;;14.73;;
74933;SDS011;63499;53.232;7.492;2023-05-07T01:03:13;22.15;;;15.43;;
74933;SDS011;63499;53.232;7.492;2023-05-07T01:05:43;25.92;;;17.23;;
74933;SDS011;63499;53.232;7.492;2023-05-07T01:08:12;24.92;;;15.75;;
74933;SDS011;63499;53.232;7.492;2023-05-07T01:10:40;28.65;;;17.38;;
74933;SDS011;63499;53.232;7.492;2023-05-07T01:13:09;27.08;;;17.73;;
74933;SDS011;63499;53.232;7.492;2023-05-07T01:15:36;24.83;;;16.25;;
74933;SDS011;63499;53.232;7.492;2023-05-07T01:18:03;27.83;;;17.65;;
74933;SDS011;63499;53.232;7.492;2023-05-07T01:20:34;28.00;;;16.98;;
74933;SDS011;63499;53.232;7.492;2023-05-07T01:23:01;28.98;;;17.08;;
74933;SDS011;63499;53.232;7.492;2023-05-07T01:25:38;26.38;;;17.73;;
74933;SDS011;63499;53.232;7.492;2023-05-07T01:28:06;32.65;;;18.83;;
74933;SDS011;63499;53.232;7.492;2023-05-07T01:30:37;26.30;;;16.63;;
74933;SDS011;63499;53.232;7.492;2023-05-07T01:33:11;30.77;;;17.20;;
74933;SDS011;63499;53.232;7.492;2023-05-07T01:35:51;31.30;;;18.23;;
74933;SDS011;63499;53.232;7.492;2023-05-07T01:38:21;28.05;;;18.40;;
74933;SDS011;63499;53.232;7.492;2023-05-07T01:40:48;29.02;;;17.60;;
74933;SDS011;63499;53.232;7.492;2023-05-07T01:43:18;28.27;;;18.30;;
74933;SDS011;63499;53.232;7.492;2023-05-07T01:45:49;34.58;;;18.08;;
74933;SDS011;63499;53.232;7.492;2023-05-07T01:48:16;29.10;;;18.23;;
74933;SDS011;63499;53.232;7.492;2023-05-07T01:50:44;27.52;;;16.42;;
74933;SDS011;63499;53.232;7.492;2023-05-07T01:53:10;31.83;;;18.33;;
74933;SDS011;63499;53.232;7.492;2023-05-07T01:55:38;33.03;;;19.30;;
74933;SDS011;63499;53.232;7.492;2023-05-07T01:58:06;32.90;;;17.63;;
74933;SDS011;63499;53.232;7.492;2023-05-07T02:00:39;33.00;;;19.23;;
74933;SDS011;63499;53.232;7.492;2023-05-07T02:03:07;34.40;;;19.27;;
74933;SDS011;63499;53.232;7.492;2023-05-07T02:05:53;34.22;;;19.85;;
74933;SDS011;63499;53.232;7.492;2023-05-07T02:08:39;35.35;;;18.77;;
74933;SDS011;63499;53.232;7.492;2023-05-07T02:11:09;28.92;;;18.30;;
74933;SDS011;63499;53.232;7.492;2023-05-07T02:13:36;32.28;;;18.55;;
74933;SDS011;63499;53.232;7.492;2023-05-07T02:16:03;32.40;;;18.63;;
74933;SDS011;63499;53.232;7.492;2023-05-07T02:18:36;32.95;;;19.10;;
74933;SDS011;63499;53.232;7.492;2023-05-07T02:21:03;28.77;;;19.20;;
74933;SDS011;63499;53.232;7.492;2023-05-07T02:23:30;26.90;;;17.50;;
74933;SDS011;63499;53.232;7.492;2023-05-07T02:25:56;29.15;;;18.35;;
74933;SDS011;63499;53.232;7.492;2023-05-07T02:28:23;26.50;;;16.33;;
74933;SDS011;63499;53.232;7.492;2023-05-07T02:30:57;24.95;;;16.58;;
74933;SDS011;63499;53.232;7.492;2023-05-07T02:33:28;24.40;;;16.45;;
74933;SDS011;63499;53.232;7.492;2023-05-07T02:35:55;24.38;;;15.30;;
74933;SDS011;63499;53.232;7.492;2023-05-07T02:38:22;23.33;;;15.95;;
74933;SDS011;63499;53.232;7.492;2023-05-07T02:40:49;22.55;;;16.05;;
74933;SDS011;63499;53.232;7.492;2023-05-07T02:43:16;22.23;;;15.85;;
74933;SDS011;63499;53.232;7.492;2023-05-07T02:45:45;24.75;;;16.42;;
74933;SDS011;63499;53.232;7.492;2023-05-07T02:48:13;23.55;;;15.73;;
74933;SDS011;63499;53.232;7.492;2023-05-07T02:50:41;24.55;;;15.93;;
74933;SDS011;63499;53.232;7.492;2023-05-07T02:53:10;22.30;;;15.77;;
74933;SDS011;63499;53.232;7.492;2023-05-07T02:55:38;21.88;;;15.57;;
74933;SDS011;63499;53.232;7.492;2023-05-07T02:58:05;24.48;;;16.80;;
74933;SDS011;63499;53.232;7.492;2023-05-07T03:00:34;22.38;;;16.15;;
74933;SDS011;63499;53.232;7.492;2023-05-07T03:03:11;23.15;;;15.85;;
74933;SDS011;63499;53.232;7.492;2023-05-07T03:05:41;24.98;;;17.25;;
74933;SDS011;63499;53.232;7.492;2023-05-07T03:08:08;24.67;;;16.25;;
74933;SDS011;63499;53.232;7.492;2023-05-07T03:10:36;24.23;;;16.17;;
74933;SDS011;63499;53.232;7.492;2023-05-07T03:13:04;22.92;;;15.88;;
74933;SDS011;63499;53.232;7.492;2023-05-07T03:15:36;24.27;;;17.08;;
74933;SDS011;63499;53.232;7.492;2023-05-07T03:18:03;24.92;;;16.02;;
74933;SDS011;63499;53.232;7.492;2023-05-07T03:20:33;30.52;;;17.02;;
74933;SDS011;63499;53.232;7.492;2023-05-07T03:23:00;22.02;;;15.23;;
74933;SDS011;63499;53.232;7.492;2023-05-07T03:25:27;26.08;;;16.60;;
74933;SDS011;63499;53.232;7.492;2023-05-07T03:27:56;22.90;;;16.17;;
74933;SDS011;63499;53.232;7.492;2023-05-07T03:30:28;24.90;;;16.73;;
74933;SDS011;63499;53.232;7.492;2023-05-07T03:32:55;25.83;;;16.85;;
74933;SDS011;63499;53.232;7.492;2023-05-07T03:35:26;29.65;;;17.58;;
74933;SDS011;63499;53.232;7.492;2023-05-07T03:37:53;24.23;;;17.40;;
74933;SDS011;63499;53.232;7.492;2023-05-07T03:40:21;23.75;;;16.60;;
74933;SDS011;63499;53.232;7.492;2023-05-07T03:42:51;20.63;;;15.90;;
74933;SDS011;63499;53.232;7.492;2023-05-07T03:45:21;25.63;;;16.52;;
74933;SDS011;63499;53.232;7.492;2023-05-07T03:47:57;29.98;;;17.45;;
74933;SDS011;63499;53.232;7.492;2023-05-07T03:50:24;28.27;;;17.77;;
74933;SDS011;63499;53.232;7.492;2023-05-07T03:52:51;27.48;;;19.05;;
74933;SDS011;63499;53.232;7.492;2023-05-07T03:55:21;24.60;;;17.75;;
74933;SDS011;63499;53.232;7.492;2023-05-07T03:57:52;29.05;;;18.73;;
74933;SDS011;63499;53.232;7.492;2023-05-07T04:00:20;23.48;;;16.63;;
74933;SDS011;63499;53.232;7.492;2023-05-07T04:02:47;25.88;;;18.50;;
74933;SDS011;63499;53.232;7.492;2023-05-07T04:05:19;23.17;;;16.27;;
74933;SDS011;63499;53.232;7.492;2023-05-07T04:07:49;20.50;;;15.65;;
74933;SDS011;63499;53.232;7.492;2023-05-07T04:10:21;21.98;;;15.20;;
74933;SDS011;63499;53.232;7.492;2023-05-07T04:12:51;21.90;;;15.40;;
74933;SDS011;63499;53.232;7.492;2023-05-07T04:15:21;21.75;;;15.02;;
74933;SDS011;63499;53.232;7.492;2023-05-07T04:17:47;20.58;;;15.30;;
74933;SDS011;63499;53.232;7.492;2023-05-07T04:20:17;22.38;;;15.68;;
74933;SDS011;63499;53.232;7.492;2023-05-07T04:22:49;21.23;;;14.85;;
74933;SDS011;63499;53.232;7.492;2023-05-07T04:25:15;20.75;;;14.63;;
74933;SDS011;63499;53.232;7.492;2023-05-07T04:27:42;24.10;;;15.70;;
74933;SDS011;63499;53.232;7.492;2023-05-07T04:30:09;25.63;;;15.10;;
74933;SDS011;63499;53.232;7.492;2023-05-07T04:32:38;24.08;;;15.40;;
74933;SDS011;63499;53.232;7.492;2023-05-07T04:35:05;23.17;;;16.40;;
74933;SDS011;63499;53.232;7.492;2023-05-07T04:37:33;24.75;;;16.05;;
74933;SDS011;63499;53.232;7.492;2023-05-07T04:40:01;21.65;;;13.80;;
74933;SDS011;63499;53.232;7.492;2023-05-07T04:42:29;22.13;;;14.73;;
74933;SDS011;63499;53.232;7.492;2023-05-07T04:44:57;23.70;;;14.57;;
74933;SDS011;63499;53.232;7.492;2023-05-07T04:47:24;19.92;;;12.80;;
74933;SDS011;63499;53.232;7.492;2023-05-07T04:49:51;21.20;;;14.48;;
74933;SDS011;63499;53.232;7.492;2023-05-07T04:52:18;21.10;;;15.10;;
74933;SDS011;63499;53.232;7.492;2023-05-07T04:54:46;21.83;;;13.70;;
74933;SDS011;63499;53.232;7.492;2023-05-07T04:57:13;22.65;;;15.23;;
74933;SDS011;63499;53.232;7.492;2023-05-07T04:59:41;25.10;;;15.63;;
74933;SDS011;63499;53.232;7.492;2023-05-07T05:02:08;26.40;;;15.90;;
74933;SDS011;63499;53.232;7.492;2023-05-07T05:04:35;22.08;;;14.82;;
74933;SDS011;63499;53.232;7.492;2023-05-07T05:07:02;23.10;;;15.88;;
74933;SDS011;63499;53.232;7.492;2023-05-07T05:09:30;24.05;;;15.23;;
74933;SDS011;63499;53.232;7.492;2023-05-07T05:11:57;23.90;;;14.43;;
74933;SDS011;63499;53.232;7.492;2023-05-07T05:14:23;25.33;;;16.10;;
74933;SDS011;63499;53.232;7.492;2023-05-07T05:16:53;23.33;;;15.57;;
74933;SDS011;63499;53.232;7.492;2023-05-07T05:19:20;25.38;;;15.27;;
74933;SDS011;63499;53.232;7.492;2023-05-07T05:21:46;22.02;;;14.80;;
74933;SDS011;63499;53.232;7.492;2023-05-07T05:24:16;26.83;;;14.90;;
74933;SDS011;63499;53.232;7.492;2023-05-07T05:26:43;21.88;;;14.77;;
74933;SDS011;63499;53.232;7.492;2023-05-07T05:29:12;19.88;;;14.40;;
74933;SDS011;63499;53.232;7.492;2023-05-07T05:31:41;20.83;;;14.60;;
74933;SDS011;63499;53.232;7.492;2023-05-07T05:34:09;24.63;;;15.48;;
74933;SDS011;63499;53.232;7.492;2023-05-07T05:36:36;25.23;;;16.23;;
74933;SDS011;63499;53.232;7.492;2023-05-07T05:39:02;25.15;;;16.55;;
74933;SDS011;63499;53.232;7.492;2023-05-07T05:41:32;22.88;;;15.50;;
74933;SDS011;63499;53.232;7.492;2023-05-07T05:44:00;25.83;;;16.17;;
74933;SDS011;63499;53.232;7.492;2023-05-07T05:46:33;22.48;;;15.13;;
74933;SDS011;63499;53.232;7.492;2023-05-07T05:49:00;20.95;;;14.40;;
74933;SDS011;63499;53.232;7.492;2023-05-07T05:51:26;19.63;;;13.73;;
74933;SDS011;63499;53.232;7.492;2023-05-07T05:53:53;22.67;;;15.50;;
74933;SDS011;63499;53.232;7.492;2023-05-07T05:56:21;23.88;;;15.30;;
74933;SDS011;63499;53.232;7.492;2023-05-07T05:58:48;26.85;;;13.88;;
74933;SDS011;63499;53.232;7.492;2023-05-07T06:01:15;20.23;;;14.07;;
74933;SDS011;63499;53.232;7.492;2023-05-07T06:03:42;23.65;;;14.52;;
74933;SDS011;63499;53.232;7.492;2023-05-07T06:06:13;20.20;;;13.63;;
74933;SDS011;63499;53.232;7.492;2023-05-07T06:08:41;23.38;;;14.02;;
74933;SDS011;63499;53.232;7.492;2023-05-07T06:11:10;26.65;;;15.13;;
74933;SDS011;63499;53.232;7.492;2023-05-07T06:13:40;23.00;;;13.73;;
74933;SDS011;63499;53.232;7.492;2023-05-07T06:16:06;20.45;;;13.65;;
74933;SDS011;63499;53.232;7.492;2023-05-07T06:18:33;23.23;;;13.93;;
74933;SDS011;63499;53.232;7.492;2023-05-07T06:21:02;21.92;;;14.82;;
74933;SDS011;63499;53.232;7.492;2023-05-07T06:23:34;20.85;;;14.10;;
74933;SDS011;63499;53.232;7.492;2023-05-07T06:26:01;22.80;;;15.73;;
74933;SDS011;63499;53.232;7.492;2023-05-07T06:28:33;24.10;;;15.55;;
74933;SDS011;63499;53.232;7.492;2023-05-07T06:33:40;25.63;;;14.25;;
74933;SDS011;63499;53.232;7.492;2023-05-07T06:36:06;24.25;;;15.18;;
74933;SDS011;63499;53.232;7.492;2023-05-07T06:38:34;26.05;;;16.75;;
74933;SDS011;63499;53.232;7.492;2023-05-07T06:41:02;22.35;;;14.90;;
74933;SDS011;63499;53.232;7.492;2023-05-07T06:43:37;22.73;;;15.73;;
74933;SDS011;63499;53.232;7.492;2023-05-07T06:46:33;27.30;;;16.30;;
74933;SDS011;63499;53.232;7.492;2023-05-07T06:49:00;33.00;;;17.70;;
74933;SDS011;63499;53.232;7.492;2023-05-07T06:51:28;29.08;;;16.73;;
74933;SDS011;63499;53.232;7.492;2023-05-07T06:53:59;26.50;;;17.30;;
74933;SDS011;63499;53.232;7.492;2023-05-07T06:56:26;30.48;;;18.13;;
74933;SDS011;63499;53.232;7.492;2023-05-07T06:58:53;25.48;;;16.80;;
74933;SDS011;63499;53.232;7.492;2023-05-07T07:01:20;25.95;;;16.42;;
74933;SDS011;63499;53.232;7.492;2023-05-07T07:03:47;22.77;;;15.23;;
74933;SDS011;63499;53.232;7.492;2023-05-07T07:06:14;21.55;;;14.98;;
74933;SDS011;63499;53.232;7.492;2023-05-07T07:08:40;22.05;;;15.18;;
74933;SDS011;63499;53.232;7.492;2023-05-07T07:11:09;22.83;;;15.65;;
74933;SDS011;63499;53.232;7.492;2023-05-07T07:13:36;25.67;;;16.20;;
74933;SDS011;63499;53.232;7.492;2023-05-07T07:16:03;20.88;;;14.48;;
74933;SDS011;63499;53.232;7.492;2023-05-07T07:18:31;22.02;;;15.35;;
74933;SDS011;63499;53.232;7.492;2023-05-07T07:20:58;20.70;;;14.27;;
74933;SDS011;63499;53.232;7.492;2023-05-07T07:23:25;18.80;;;13.73;;
74933;SDS011;63499;53.232;7.492;2023-05-07T07:25:51;18.20;;;13.70;;
74933;SDS011;63499;53.232;7.492;2023-05-07T07:28:20;18.73;;;13.18;;
74933;SDS011;63499;53.232;7.492;2023-05-07T07:30:48;19.63;;;13.80;;
74933;SDS011;63499;53.232;7.492;2023-05-07T07:33:16;23.45;;;14.73;;
74933;SDS011;63499;53.232;7.492;2023-05-07T07:35:46;22.70;;;13.80;;
74933;SDS011;63499;53.232;7.492;2023-05-07T07:38:12;24.90;;;14.05;;
74933;SDS011;63499;53.232;7.492;2023-05-07T07:40:39;22.08;;;13.50;;
74933;SDS011;63499;53.232;7.492;2023-05-07T07:43:07;21.52;;;12.95;;
74933;SDS011;63499;53.232;7.492;2023-05-07T07:45:34;18.98;;;12.25;;
74933;SDS011;63499;53.232;7.492;2023-05-07T07:48:01;18.35;;;12.82;;
74933;SDS011;63499;53.232;7.492;2023-05-07T07:50:30;19.70;;;12.68;;
74933;SDS011;63499;53.232;7.492;2023-05-07T07:52:57;17.92;;;12.23;;
74933;SDS011;63499;53.232;7.492;2023-05-07T07:55:26;14.60;;;11.63;;
74933;SDS011;63499;53.232;7.492;2023-05-07T07:57:56;16.65;;;11.82;;
74933;SDS011;63499;53.232;7.492;2023-05-07T08:00:24;16.45;;;12.00;;
74933;SDS011;63499;53.232;7.492;2023-05-07T08:02:54;18.77;;;11.75;;
74933;SDS011;63499;53.232;7.492;2023-05-07T08:05:26;17.23;;;12.30;;
74933;SDS011;63499;53.232;7.492;2023-05-07T08:07:53;16.33;;;11.43;;
74933;SDS011;63499;53.232;7.492;2023-05-07T08:10:25;17.55;;;12.23;;
74933;SDS011;63499;53.232;7.492;2023-05-07T08:12:59;18.20;;;11.68;;
74933;SDS011;63499;53.232;7.492;2023-05-07T08:15:25;15.50;;;11.77;;
74933;SDS011;63499;53.232;7.492;2023-05-07T08:17:55;16.35;;;11.77;;
74933;SDS011;63499;53.232;7.492;2023-05-07T08:20:23;19.02;;;11.93;;
74933;SDS011;63499;53.232;7.492;2023-05-07T08:22:53;18.10;;;11.38;;
74933;SDS011;63499;53.232;7.492;2023-05-07T08:25:20;16.85;;;10.82;;
74933;SDS011;63499;53.232;7.492;2023-05-07T08:27:47;14.18;;;10.73;;
74933;SDS011;63499;53.232;7.492;2023-05-07T08:30:14;15.98;;;11.20;;
74933;SDS011;63499;53.232;7.492;2023-05-07T08:32:41;14.05;;;10.75;;
74933;SDS011;63499;53.232;7.492;2023-05-07T08:35:08;17.00;;;10.10;;
74933;SDS011;63499;53.232;7.492;2023-05-07T08:37:35;14.43;;;10.73;;
74933;SDS011;63499;53.232;7.492;2023-05-07T08:40:02;14.05;;;10.40;;
74933;SDS011;63499;53.232;7.492;2023-05-07T08:42:35;17.63;;;9.80;;
74933;SDS011;63499;53.232;7.492;2023-05-07T08:45:03;12.98;;;9.35;;
74933;SDS011;63499;53.232;7.492;2023-05-07T08:47:43;13.45;;;10.63;;
74933;SDS011;63499;53.232;7.492;2023-05-07T08:50:11;13.65;;;10.38;;
74933;SDS011;63499;53.232;7.492;2023-05-07T08:52:39;13.57;;;10.45;;
74933;SDS011;63499;53.232;7.492;2023-05-07T08:55:06;13.38;;;9.40;;
74933;SDS011;63499;53.232;7.492;2023-05-07T08:57:34;13.60;;;10.45;;
74933;SDS011;63499;53.232;7.492;2023-05-07T09:00:04;12.45;;;10.38;;
74933;SDS011;63499;53.232;7.492;2023-05-07T09:02:35;14.00;;;10.45;;
74933;SDS011;63499;53.232;7.492;2023-05-07T09:05:02;14.30;;;10.18;;
74933;SDS011;63499;53.232;7.492;2023-05-07T09:07:32;15.02;;;11.00;;
74933;SDS011;63499;53.232;7.492;2023-05-07T09:10:04;17.60;;;10.55;;
74933;SDS011;63499;53.232;7.492;2023-05-07T09:12:33;12.75;;;9.73;;
74933;SDS011;63499;53.232;7.492;2023-05-07T09:15:05;15.02;;;10.77;;
74933;SDS011;63499;53.232;7.492;2023-05-07T09:17:35;12.60;;;9.82;;
74933;SDS011;63499;53.232;7.492;2023-05-07T09:20:02;13.20;;;9.75;;
74933;SDS011;63499;53.232;7.492;2023-05-07T09:22:31;13.18;;;9.75;;
74933;SDS011;63499;53.232;7.492;2023-05-07T09:25:03;12.40;;;9.65;;
74933;SDS011;63499;53.232;7.492;2023-05-07T09:27:30;15.55;;;10.38;;
74933;SDS011;63499;53.232;7.492;2023-05-07T09:29:58;11.93;;;8.82;;
74933;SDS011;63499;53.232;7.492;2023-05-07T09:32:25;12.82;;;9.73;;
74933;SDS011;63499;53.232;7.492;2023-05-07T09:34:53;12.93;;;9.65;;
74933;SDS011;63499;53.232;7.492;2023-05-07T09:37:22;12.30;;;9.68;;
74933;SDS011;63499;53.232;7.492;2023-05-07T09:39:49;13.88;;;10.25;;
74933;SDS011;63499;53.232;7.492;2023-05-07T09:42:24;17.63;;;9.52;;
74933;SDS011;63499;53.232;7.492;2023-05-07T09:44:54;11.90;;;9.00;;
74933;SDS011;63499;53.232;7.492;2023-05-07T09:47:24;13.73;;;8.95;;
74933;SDS011;63499;53.232;7.492;2023-05-07T09:49:55;13.40;;;9.00;;
74933;SDS011;63499;53.232;7.492;2023-05-07T09:55:01;14.25;;;9.57;;
74933;SDS011;63499;53.232;7.492;2023-05-07T09:57:31;14.15;;;9.90;;
74933;SDS011;63499;53.232;7.492;2023-05-07T10:00:03;11.32;;;9.20;;
74933;SDS011;63499;53.232;7.492;2023-05-07T10:02:47;13.45;;;9.38;;
74933;SDS011;63499;53.232;7.492;2023-05-07T10:05:19;12.10;;;9.15;;
74933;SDS011;63499;53.232;7.492;2023-05-07T10:07:46;12.00;;;9.15;;
74933;SDS011;63499;53.232;7.492;2023-05-07T10:10:14;15.20;;;9.20;;
74933;SDS011;63499;53.232;7.492;2023-05-07T10:12:43;13.05;;;10.20;;
74933;SDS011;63499;53.232;7.492;2023-05-07T10:15:16;14.32;;;11.32;;
74933;SDS011;63499;53.232;7.492;2023-05-07T10:17:47;13.85;;;11.30;;
74933;SDS011;63499;53.232;7.492;2023-05-07T10:20:16;15.57;;;12.02;;
74933;SDS011;63499;53.232;7.492;2023-05-07T10:22:46;17.80;;;12.60;;
74933;SDS011;63499;53.232;7.492;2023-05-07T10:25:25;14.65;;;12.82;;
74933;SDS011;63499;53.232;7.492;2023-05-07T10:27:53;12.63;;;11.32;;
74933;SDS011;63499;53.232;7.492;2023-05-07T10:32:50;12.50;;;10.40;;
74933;SDS011;63499;53.232;7.492;2023-05-07T10:35:29;12.85;;;9.18;;
74933;SDS011;63499;53.232;7.492;2023-05-07T10:38:00;11.40;;;9.57;;
74933;SDS011;63499;53.232;7.492;2023-05-07T10:40:30;12.50;;;10.13;;
74933;SDS011;63499;53.232;7.492;2023-05-07T10:42:59;13.70;;;10.05;;
74933;SDS011;63499;53.232;7.492;2023-05-07T10:45:29;13.05;;;10.65;;
74933;SDS011;63499;53.232;7.492;2023-05-07T10:48:08;11.35;;;9.90;;
74933;SDS011;63499;53.232;7.492;2023-05-07T10:50:36;11.75;;;10.27;;
74933;SDS011;63499;53.232;7.492;2023-05-07T10:55:51;16.95;;;11.57;;
74933;SDS011;63499;53.232;7.492;2023-05-07T10:58:26;12.63;;;11.30;;
74933;SDS011;63499;53.232;7.492;2023-05-07T11:01:01;15.35;;;11.10;;
74933;SDS011;63499;53.232;7.492;2023-05-07T11:03:34;15.95;;;12.13;;
74933;SDS011;63499;53.232;7.492;2023-05-07T11:11:19;14.07;;;11.50;;
74933;SDS011;63499;53.232;7.492;2023-05-07T11:13:51;12.20;;;10.90;;
74933;SDS011;63499;53.232;7.492;2023-05-07T11:16:35;14.60;;;11.05;;
74933;SDS011;63499;53.232;7.492;2023-05-07T11:25:05;10.80;;;9.43;;
74933;SDS011;63499;53.232;7.492;2023-05-07T11:27:33;9.65;;;8.65;;
74933;SDS011;63499;53.232;7.492;2023-05-07T11:30:00;10.50;;;9.40;;
74933;SDS011;63499;53.232;7.492;2023-05-07T11:32:28;11.43;;;9.35;;
74933;SDS011;63499;53.232;7.492;2023-05-07T11:34:55;10.48;;;8.35;;
74933;SDS011;63499;53.232;7.492;2023-05-07T11:37:24;9.73;;;7.95;;
74933;SDS011;63499;53.232;7.492;2023-05-07T11:40:03;8.23;;;7.43;;
74933;SDS011;63499;53.232;7.492;2023-05-07T11:42:31;9.02;;;8.13;;
74933;SDS011;63499;53.232;7.492;2023-05-07T11:45:01;9.23;;;8.32;;
74933;SDS011;63499;53.232;7.492;2023-05-07T11:47:30;8.07;;;7.18;;
74933;SDS011;63499;53.232;7.492;2023-05-07T11:49:57;8.45;;;7.53;;
74933;SDS011;63499;53.232;7.492;2023-05-07T11:52:28;8.45;;;7.18;;
74933;SDS011;63499;53.232;7.492;2023-05-07T11:54:55;10.75;;;8.13;;
74933;SDS011;63499;53.232;7.492;2023-05-07T11:57:23;8.25;;;7.43;;
74933;SDS011;63499;53.232;7.492;2023-05-07T11:59:59;8.57;;;7.68;;
74933;SDS011;63499;53.232;7.492;2023-05-07T12:02:38;9.25;;;8.10;;
74933;SDS011;63499;53.232;7.492;2023-05-07T12:05:05;10.63;;;7.72;;
74933;SDS011;63499;53.232;7.492;2023-05-07T12:07:33;10.20;;;8.38;;
74933;SDS011;63499;53.232;7.492;2023-05-07T12:10:04;8.80;;;7.90;;
74933;SDS011;63499;53.232;7.492;2023-05-07T12:12:31;9.48;;;8.48;;
74933;SDS011;63499;53.232;7.492;2023-05-07T12:14:57;9.93;;;8.93;;
74933;SDS011;63499;53.232;7.492;2023-05-07T12:17:24;11.75;;;9.02;;
74933;SDS011;63499;53.232;7.492;2023-05-07T12:19:51;13.02;;;9.82;;
74933;SDS011;63499;53.232;7.492;2023-05-07T12:22:19;10.00;;;8.98;;
74933;SDS011;63499;53.232;7.492;2023-05-07T12:24:47;11.60;;;8.98;;
74933;SDS011;63499;53.232;7.492;2023-05-07T12:27:14;10.15;;;9.15;;
74933;SDS011;63499;53.232;7.492;2023-05-07T12:29:45;11.00;;;9.00;;
74933;SDS011;63499;53.232;7.492;2023-05-07T12:32:13;8.68;;;7.82;;
74933;SDS011;63499;53.232;7.492;2023-05-07T12:34:44;10.82;;;8.30;;
74933;SDS011;63499;53.232;7.492;2023-05-07T12:37:13;10.23;;;9.18;;
74933;SDS011;63499;53.232;7.492;2023-05-07T12:40:02;9.88;;;8.50;;
74933;SDS011;63499;53.232;7.492;2023-05-07T12:42:35;11.02;;;9.07;;
74933;SDS011;63499;53.232;7.492;2023-05-07T12:45:12;9.50;;;8.60;;
74933;SDS011;63499;53.232;7.492;2023-05-07T12:47:45;9.73;;;8.65;;
74933;SDS011;63499;53.232;7.492;2023-05-07T12:50:12;10.30;;;9.20;;
74933;SDS011;63499;53.232;7.492;2023-05-07T12:52:43;8.98;;;8.18;;
74933;SDS011;63499;53.232;7.492;2023-05-07T12:55:48;9.25;;;8.13;;
74933;SDS011;63499;53.232;7.492;2023-05-07T13:01:29;7.60;;;6.68;;
74933;SDS011;63499;53.232;7.492;2023-05-07T13:04:00;7.60;;;6.80;;
74933;SDS011;63499;53.232;7.492;2023-05-07T13:06:26;7.65;;;6.95;;
74933;SDS011;63499;53.232;7.492;2023-05-07T13:08:53;9.95;;;6.80;;
74933;SDS011;63499;53.232;7.492;2023-05-07T13:11:20;9.40;;;6.70;;
74933;SDS011;63499;53.232;7.492;2023-05-07T13:13:47;8.38;;;6.20;;
74933;SDS011;63499;53.232;7.492;2023-05-07T13:16:14;7.43;;;6.30;;
74933;SDS011;63499;53.232;7.492;2023-05-07T13:18:41;7.18;;;6.47;;
74933;SDS011;63499;53.232;7.492;2023-05-07T13:21:11;8.25;;;6.90;;
74933;SDS011;63499;53.232;7.492;2023-05-07T13:23:39;7.75;;;6.85;;
74933;SDS011;63499;53.232;7.492;2023-05-07T13:26:06;6.82;;;6.18;;
74933;SDS011;63499;53.232;7.492;2023-05-07T13:28:33;8.02;;;7.22;;
74933;SDS011;63499;53.232;7.492;2023-05-07T13:31:00;8.82;;;6.55;;
74933;SDS011;63499;53.232;7.492;2023-05-07T13:33:27;7.60;;;6.63;;
74933;SDS011;63499;53.232;7.492;2023-05-07T13:35:54;12.45;;;6.55;;
74933;SDS011;63499;53.232;7.492;2023-05-07T13:38:24;8.50;;;6.88;;
74933;SDS011;63499;53.232;7.492;2023-05-07T13:40:50;7.78;;;6.97;;
74933;SDS011;63499;53.232;7.492;2023-05-07T13:43:18;7.07;;;6.22;;
74933;SDS011;63499;53.232;7.492;2023-05-07T13:45:46;10.00;;;6.93;;
74933;SDS011;63499;53.232;7.492;2023-05-07T13:48:12;9.38;;;7.05;;
74933;SDS011;63499;53.232;7.492;2023-05-07T13:50:39;9.27;;;5.97;;
74933;SDS011;63499;53.232;7.492;2023-05-07T13:53:07;7.05;;;6.25;;
74933;SDS011;63499;53.232;7.492;2023-05-07T13:55:33;7.72;;;6.20;;
74933;SDS011;63499;53.232;7.492;2023-05-07T13:58:01;8.60;;;6.53;;
74933;SDS011;63499;53.232;7.492;2023-05-07T14:00:29;7.15;;;6.10;;
74933;SDS011;63499;53.232;7.492;2023-05-07T14:02:56;6.60;;;6.00;;
74933;SDS011;63499;53.232;7.492;2023-05-07T14:05:23;7.50;;;6.22;;
74933;SDS011;63499;53.232;7.492;2023-05-07T14:07:53;8.93;;;5.97;;
74933;SDS011;63499;53.232;7.492;2023-05-07T14:10:21;7.50;;;6.22;;
74933;SDS011;63499;53.232;7.492;2023-05-07T14:12:47;6.97;;;6.28;;
74933;SDS011;63499;53.232;7.492;2023-05-07T14:15:14;8.93;;;6.03;;
74933;SDS011;63499;53.232;7.492;2023-05-07T14:17:41;9.30;;;6.03;;
74933;SDS011;63499;53.232;7.492;2023-05-07T14:20:08;7.57;;;6.38;;
74933;SDS011;63499;53.232;7.492;2023-05-07T14:22:36;7.20;;;6.50;;
74933;SDS011;63499;53.232;7.492;2023-05-07T14:25:03;7.68;;;6.22;;
74933;SDS011;63499;53.232;7.492;2023-05-07T14:27:30;6.68;;;6.05;;
74933;SDS011;63499;53.232;7.492;2023-05-07T14:29:57;8.65;;;6.13;;
74933;SDS011;63499;53.232;7.492;2023-05-07T14:32:23;7.50;;;6.80;;
74933;SDS011;63499;53.232;7.492;2023-05-07T14:34:50;8.57;;;6.43;;
74933;SDS011;63499;53.232;7.492;2023-05-07T14:37:17;6.93;;;6.22;;
74933;SDS011;63499;53.232;7.492;2023-05-07T14:39:45;9.68;;;6.97;;
74933;SDS011;63499;53.232;7.492;2023-05-07T14:42:12;8.25;;;6.80;;
74933;SDS011;63499;53.232;7.492;2023-05-07T14:44:42;7.55;;;6.05;;
74933;SDS011;63499;53.232;7.492;2023-05-07T14:47:10;7.90;;;6.57;;
74933;SDS011;63499;53.232;7.492;2023-05-07T14:49:36;8.02;;;6.35;;
74933;SDS011;63499;53.232;7.492;2023-05-07T14:52:04;10.48;;;6.43;;
74933;SDS011;63499;53.232;7.492;2023-05-07T14:54:33;12.35;;;7.00;;
74933;SDS011;63499;53.232;7.492;2023-05-07T14:57:04;8.75;;;6.40;;
74933;SDS011;63499;53.232;7.492;2023-05-07T14:59:31;8.45;;;6.53;;
74933;SDS011;63499;53.232;7.492;2023-05-07T15:01:58;9.20;;;6.30;;
74933;SDS011;63499;53.232;7.492;2023-05-07T15:04:25;7.18;;;6.28;;
74933;SDS011;63499;53.232;7.492;2023-05-07T15:06:55;7.43;;;5.78;;